Time;durP1;ratioP1;P1;durP2;ratioP2;P2;SDS_P1;SDS_P2;PMS_P1;PMS_P2;Temp;Humidity;BMP_temperature;BMP_pressure;BME280_temperature;BME280_humidity;BME280_pressure;Samples;Min_cycle;Max_cycle;Signal;HPM_P1;HPM_P2
2021/04/27 00:00:36;;;;;;;8.40;4.50;;;2.10;99.90;;;;;;2090254;28;20703;-66
2021/04/27 00:01:37;;;;;;;8.73;4.85;;;2.10;99.90;;;;;;2089865;28;20176;-66
2021/04/27 00:02:38;;;;;;;7.40;4.73;;;2.10;99.90;;;;;;2090268;28;20187;-66
2021/04/27 00:03:39;;;;;;;6.93;4.50;;;2.10;99.90;;;;;;2089567;28;20357;-65
2021/04/27 00:04:40;;;;;;;6.53;4.47;;;2.00;99.90;;;;;;2081513;28;20423;-65
2021/04/27 00:05:41;;;;;;;7.00;4.67;;;2.10;99.90;;;;;;2089500;28;20704;-67
2021/04/27 00:06:41;;;;;;;6.70;4.93;;;2.00;99.90;;;;;;2090375;28;20175;-66
2021/04/27 00:07:43;;;;;;;6.60;4.40;;;2.00;99.90;;;;;;2090101;28;20183;-66
2021/04/27 00:08:44;;;;;;;10.10;5.40;;;2.00;99.90;;;;;;2090204;28;20693;-66
2021/04/27 00:09:45;;;;;;;7.53;5.80;;;2.00;99.90;;;;;;2089935;28;20192;-66
2021/04/27 00:10:46;;;;;;;6.77;5.13;;;2.00;99.90;;;;;;2090082;28;20179;-66
2021/04/27 00:11:46;;;;;;;8.93;4.43;;;1.90;99.90;;;;;;2089202;28;20666;-66
2021/04/27 00:12:48;;;;;;;7.60;4.90;;;1.90;99.90;;;;;;2089570;28;20265;-67
2021/04/27 00:13:48;;;;;;;8.75;5.00;;;1.90;99.90;;;;;;2089931;28;20270;-66
2021/04/27 00:14:49;;;;;;;6.83;5.07;;;1.90;99.90;;;;;;2089993;28;20184;-66
2021/04/27 00:15:50;;;;;;;7.33;4.70;;;1.80;99.90;;;;;;2089904;28;20191;-66
2021/04/27 00:16:51;;;;;;;6.77;4.40;;;1.80;99.90;;;;;;2090165;28;20188;-66
2021/04/27 00:17:52;;;;;;;6.53;4.53;;;1.80;99.90;;;;;;2089162;28;20210;-66
2021/04/27 00:18:53;;;;;;;6.90;4.70;;;1.80;99.90;;;;;;2081257;28;20200;-66
2021/04/27 00:19:54;;;;;;;6.07;4.40;;;1.80;99.90;;;;;;2089312;28;20321;-65
2021/04/27 00:20:54;;;;;;;9.33;4.97;;;1.80;99.90;;;;;;2090093;28;20183;-66
2021/04/27 00:21:55;;;;;;;9.77;5.07;;;1.70;99.90;;;;;;2089112;28;20238;-65
2021/04/27 00:22:57;;;;;;;11.17;5.33;;;1.70;99.90;;;;;;2089533;28;20183;-66
2021/04/27 00:23:57;;;;;;;8.75;4.90;;;1.70;99.90;;;;;;2089995;28;20261;-66
2021/04/27 00:24:59;;;;;;;6.70;4.60;;;1.60;99.90;;;;;;2089910;28;20184;-66
2021/04/27 00:25:59;;;;;;;9.07;4.82;;;1.60;99.90;;;;;;2089932;28;20176;-67
2021/04/27 00:27:01;;;;;;;6.53;4.47;;;1.70;99.90;;;;;;2089728;28;20646;-66
2021/04/27 00:28:02;;;;;;;9.95;4.57;;;1.70;99.90;;;;;;2089276;28;20210;-66
2021/04/27 00:29:04;;;;;;;7.97;4.70;;;1.70;99.90;;;;;;2089256;28;20218;-66
2021/04/27 00:30:09;;;;;;;7.30;4.72;;;1.60;99.90;;;;;;2089822;28;20183;-66
2021/04/27 00:31:10;;;;;;;6.90;4.75;;;1.60;99.90;;;;;;2089902;28;20187;-66
2021/04/27 00:32:11;;;;;;;7.33;5.07;;;1.60;99.90;;;;;;2088061;28;20634;-66
2021/04/27 00:33:12;;;;;;;9.77;5.07;;;1.60;99.90;;;;;;2089453;28;20183;-65
2021/04/27 00:34:12;;;;;;;5.90;4.77;;;1.50;99.90;;;;;;2089921;28;20175;-66
2021/04/27 00:35:14;;;;;;;7.17;4.50;;;1.50;99.90;;;;;;2089959;28;20175;-67
2021/04/27 00:36:15;;;;;;;7.95;4.85;;;1.50;99.90;;;;;;2089047;28;20184;-66
2021/04/27 00:37:15;;;;;;;5.87;4.57;;;1.50;99.90;;;;;;2080731;28;20180;-66
2021/04/27 00:38:16;;;;;;;7.00;4.90;;;1.50;99.90;;;;;;2088967;28;20672;-66
2021/04/27 00:39:17;;;;;;;7.30;4.77;;;1.40;99.90;;;;;;2089732;28;20535;-66
2021/04/27 00:40:19;;;;;;;7.23;5.20;;;1.40;99.90;;;;;;2089754;28;20175;-66
2021/04/27 00:41:21;;;;;;;6.47;4.53;;;1.40;99.90;;;;;;2088851;28;20229;-65
2021/04/27 00:42:32;;;;;;;7.50;4.32;;;1.40;99.90;;;;;;2089025;28;20641;-66
2021/04/27 00:43:33;;;;;;;8.18;5.18;;;1.40;99.90;;;;;;2089698;28;20627;-65
2021/04/27 00:44:35;;;;;;;5.37;4.20;;;1.40;99.90;;;;;;2089643;28;20201;-66
2021/04/27 00:45:35;;;;;;;8.13;4.90;;;1.30;99.90;;;;;;2089721;28;20665;-66
2021/04/27 00:46:36;;;;;;;6.73;4.60;;;1.40;99.90;;;;;;2088861;28;20184;-66
2021/04/27 00:47:37;;;;;;;8.40;4.90;;;1.30;99.90;;;;;;2089191;28;20188;-66
2021/04/27 00:48:38;;;;;;;8.63;4.63;;;1.30;99.90;;;;;;2089314;28;20207;-65
2021/04/27 00:49:38;;;;;;;6.77;4.50;;;1.30;99.90;;;;;;2089593;28;20182;-65
2021/04/27 00:50:40;;;;;;;6.73;4.47;;;1.30;99.90;;;;;;2105120;22;20169;-67
2021/04/27 00:51:41;;;;;;;6.25;4.45;;;1.20;99.90;;;;;;2097269;28;20175;-67
2021/04/27 00:52:44;;;;;;;7.30;4.53;;;1.20;99.90;;;;;;2097896;28;20269;-67
2021/04/27 00:53:45;;;;;;;8.57;4.85;;;1.20;99.90;;;;;;2097942;28;20229;-67
2021/04/27 00:54:46;;;;;;;6.60;4.30;;;1.20;99.90;;;;;;2097876;28;20268;-67
2021/04/27 00:55:47;;;;;;;7.43;5.13;;;1.20;99.90;;;;;;2097953;28;20178;-67
2021/04/27 00:56:47;;;;;;;8.67;5.33;;;1.20;99.90;;;;;;2097903;28;20416;-67
2021/04/27 00:57:49;;;;;;;7.10;4.67;;;1.10;99.90;;;;;;2097972;28;20573;-67
2021/04/27 00:58:50;;;;;;;8.02;4.80;;;1.10;99.90;;;;;;2097787;28;20185;-67
2021/04/27 00:59:52;;;;;;;8.93;5.17;;;1.10;99.90;;;;;;2097946;28;20249;-67
2021/04/27 01:00:54;;;;;;;6.22;4.50;;;1.10;99.90;;;;;;2092757;28;20198;-67
2021/04/27 01:01:54;;;;;;;7.70;4.85;;;1.00;99.90;;;;;;2089138;28;20191;-67
2021/04/27 01:02:56;;;;;;;6.47;4.83;;;1.10;99.90;;;;;;2089599;28;20209;-67
2021/04/27 01:03:57;;;;;;;7.90;4.47;;;1.00;99.90;;;;;;2089706;28;20548;-67
2021/04/27 01:04:57;;;;;;;10.83;4.80;;;1.00;99.90;;;;;;2089725;28;20183;-67
2021/04/27 01:05:58;;;;;;;9.20;5.40;;;1.00;99.90;;;;;;2087801;28;20279;-67
2021/04/27 01:06:59;;;;;;;7.17;4.93;;;1.00;99.90;;;;;;2082995;28;20263;-67
2021/04/27 01:08:20;;;;;;;6.10;4.53;;;1.00;99.90;;;;;;2081308;28;20590;-66
2021/04/27 01:09:30;;;;;;;7.40;4.57;;;1.00;99.90;;;;;;2080613;28;20209;-67
2021/04/27 01:11:07;;;;;;;8.38;4.93;;;1.00;99.90;;;;;;2080752;28;20651;-67
2021/04/27 01:12:33;;;;;;;8.05;5.15;;;1.00;99.90;;;;;;2081038;28;20194;-67
2021/04/27 01:13:40;;;;;;;7.93;5.10;;;1.00;99.90;;;;;;2081341;28;20173;-67
2021/04/27 01:14:49;;;;;;;6.10;4.10;;;0.90;99.90;;;;;;2081515;28;20176;-67
2021/04/27 01:15:51;;;;;;;7.07;4.63;;;0.90;99.90;;;;;;2080707;28;20223;-67
2021/04/27 01:17:02;;;;;;;7.88;4.45;;;0.90;99.90;;;;;;2080819;28;20650;-67
2021/04/27 01:18:03;;;;;;;6.25;4.28;;;0.90;99.90;;;;;;2081141;28;20210;-67
2021/04/27 01:19:08;;;;;;;6.72;4.72;;;0.90;99.90;;;;;;2080720;28;20633;-67
2021/04/27 01:20:16;;;;;;;6.88;5.00;;;0.90;99.90;;;;;;2080649;28;20214;-67
2021/04/27 01:21:18;;;;;;;6.80;4.90;;;0.90;99.90;;;;;;2080509;28;20545;-67
2021/04/27 01:22:29;;;;;;;8.38;4.30;;;0.90;99.90;;;;;;2080875;28;20653;-67
2021/04/27 01:24:04;;;;;;;5.70;3.97;;;0.90;99.90;;;;;;2087864;28;20441;-67
2021/04/27 01:25:07;;;;;;;7.50;4.70;;;0.90;99.90;;;;;;2080533;28;20213;-67
2021/04/27 01:26:18;;;;;;;6.90;4.68;;;0.90;99.90;;;;;;2080660;28;20179;-67
2021/04/27 01:27:20;;;;;;;6.95;4.70;;;0.90;99.90;;;;;;2080812;28;20202;-67
2021/04/27 01:28:24;;;;;;;7.72;5.00;;;0.90;99.90;;;;;;2080598;28;20240;-67
2021/04/27 01:29:29;;;;;;;6.53;4.78;;;0.80;99.90;;;;;;2072836;28;20553;-67
2021/04/27 01:30:37;;;;;;;7.70;4.80;;;0.80;99.90;;;;;;2072907;28;20555;-67
2021/04/27 01:31:40;;;;;;;7.90;4.82;;;0.80;99.90;;;;;;2080367;28;20668;-67
2021/04/27 01:32:41;;;;;;;6.78;4.60;;;0.80;99.90;;;;;;2080409;28;20667;-67
2021/04/27 01:33:43;;;;;;;8.38;4.97;;;0.80;99.90;;;;;;2080746;28;20252;-67
2021/04/27 01:34:46;;;;;;;6.00;4.60;;;0.80;99.90;;;;;;2080925;28;20696;-67
2021/04/27 01:35:47;;;;;;;7.30;5.15;;;0.80;99.90;;;;;;2080492;28;20189;-68
2021/04/27 01:36:51;;;;;;;7.78;4.60;;;0.80;99.90;;;;;;2072395;28;20279;-67
2021/04/27 01:37:51;;;;;;;6.68;5.13;;;0.80;99.90;;;;;;2080661;28;20201;-67
2021/04/27 01:38:53;;;;;;;9.10;4.93;;;0.70;99.90;;;;;;2080975;28;20185;-67
2021/04/27 01:39:54;;;;;;;7.82;4.78;;;0.80;99.90;;;;;;2081091;28;20256;-67
2021/04/27 01:40:56;;;;;;;8.07;4.33;;;0.70;99.90;;;;;;2080916;28;20575;-67
2021/04/27 01:42:01;;;;;;;8.05;4.75;;;0.70;99.90;;;;;;2080371;28;20420;-67
2021/04/27 01:43:03;;;;;;;8.50;4.65;;;0.70;99.90;;;;;;2072721;28;20186;-67
2021/04/27 01:44:05;;;;;;;9.18;4.78;;;0.70;99.90;;;;;;2080488;28;20659;-67
2021/04/27 01:45:08;;;;;;;6.57;4.65;;;0.70;99.90;;;;;;2080369;28;20776;-67
2021/04/27 01:46:09;;;;;;;7.32;4.75;;;0.70;99.90;;;;;;2080295;28;20188;-67
2021/04/27 01:47:10;;;;;;;9.05;5.03;;;0.70;99.90;;;;;;2072215;28;20558;-67
2021/04/27 01:48:12;;;;;;;6.45;4.65;;;0.70;99.90;;;;;;2072388;28;20636;-67
2021/04/27 01:49:15;;;;;;;7.80;4.88;;;0.70;99.90;;;;;;2072430;28;20192;-67
2021/04/27 01:50:16;;;;;;;7.65;4.55;;;0.60;99.90;;;;;;2072494;28;20177;-67
2021/04/27 01:51:17;;;;;;;9.07;4.23;;;0.60;99.90;;;;;;2071771;28;20257;-67
2021/04/27 01:52:18;;;;;;;7.85;4.57;;;0.60;99.90;;;;;;2080378;28;20165;-67
2021/04/27 01:53:19;;;;;;;6.40;4.70;;;0.60;99.90;;;;;;2081018;28;20177;-67
2021/04/27 01:54:25;;;;;;;7.32;4.65;;;0.60;99.90;;;;;;2081119;28;20168;-67
2021/04/27 01:55:26;;;;;;;7.43;5.30;;;0.60;99.90;;;;;;2080889;28;20734;-67
2021/04/27 01:56:27;;;;;;;7.13;4.43;;;0.50;99.90;;;;;;2081083;28;20226;-67
2021/04/27 01:57:29;;;;;;;5.65;4.40;;;0.60;99.90;;;;;;2080739;28;20791;-67
2021/04/27 01:58:29;;;;;;;9.07;4.57;;;0.60;99.90;;;;;;2081127;28;20213;-67
2021/04/27 01:59:30;;;;;;;8.80;4.40;;;0.60;99.90;;;;;;2081029;28;20380;-67
2021/04/27 02:00:31;;;;;;;5.37;4.67;;;0.60;99.90;;;;;;2080954;28;20213;-67
2021/04/27 02:01:33;;;;;;;6.47;4.30;;;0.60;99.90;;;;;;2080799;28;20262;-67
2021/04/27 02:02:34;;;;;;;7.55;4.57;;;0.50;99.90;;;;;;2080925;28;20266;-67
2021/04/27 02:03:47;;;;;;;8.60;4.73;;;0.60;99.90;;;;;;2080921;28;20182;-66
2021/04/27 02:04:48;;;;;;;6.80;4.35;;;0.60;99.90;;;;;;2080437;28;20189;-67
2021/04/27 02:05:48;;;;;;;5.88;4.63;;;0.60;99.90;;;;;;2080295;28;20255;-67
2021/04/27 02:06:51;;;;;;;6.93;4.33;;;0.60;99.90;;;;;;2081128;28;20228;-67
2021/04/27 02:07:52;;;;;;;7.22;4.53;;;0.50;99.90;;;;;;2080813;28;20194;-67
2021/04/27 02:09:01;;;;;;;6.00;4.38;;;0.50;99.90;;;;;;2081127;28;20670;-67
2021/04/27 02:10:06;;;;;;;7.28;4.55;;;0.50;99.90;;;;;;2080251;28;20181;-67
2021/04/27 02:11:07;;;;;;;7.43;4.43;;;0.50;99.90;;;;;;2080311;28;20213;-67
2021/04/27 02:12:09;;;;;;;5.43;4.13;;;0.50;99.90;;;;;;2080759;28;20190;-67
2021/04/27 02:13:14;;;;;;;6.03;4.50;;;0.50;99.90;;;;;;2080191;28;20326;-67
2021/04/27 02:14:15;;;;;;;7.25;4.85;;;0.50;99.90;;;;;;2080395;28;20685;-67
2021/04/27 02:15:19;;;;;;;7.65;4.47;;;0.50;99.90;;;;;;2080329;28;20657;-67
2021/04/27 02:16:25;;;;;;;6.97;4.30;;;0.50;99.90;;;;;;2080309;28;20217;-67
2021/04/27 02:17:40;;;;;;;7.88;4.55;;;0.40;99.90;;;;;;2080282;28;20590;-67
2021/04/27 02:18:50;;;;;;;7.43;4.93;;;0.50;99.90;;;;;;2080273;28;20663;-67
2021/04/27 02:19:54;;;;;;;7.45;4.38;;;0.50;99.90;;;;;;2080336;28;20174;-67
2021/04/27 02:21:00;;;;;;;5.90;4.57;;;0.40;99.90;;;;;;2080303;28;20727;-67
2021/04/27 02:22:05;;;;;;;6.25;4.43;;;0.40;99.90;;;;;;2072779;28;20178;-67
2021/04/27 02:23:06;;;;;;;5.28;4.20;;;0.40;99.90;;;;;;2080390;28;20694;-67
2021/04/27 02:24:11;;;;;;;6.07;4.32;;;0.40;99.90;;;;;;2080912;28;20195;-67
2021/04/27 02:25:14;;;;;;;6.30;4.50;;;0.40;99.90;;;;;;2078899;28;20208;-67
2021/04/27 02:26:15;;;;;;;4.85;4.07;;;0.40;99.90;;;;;;2080173;28;20759;-66
2021/04/27 02:27:16;;;;;;;7.35;4.20;;;0.40;99.90;;;;;;2080186;28;20185;-67
2021/04/27 02:28:18;;;;;;;6.13;4.43;;;0.40;99.90;;;;;;2072291;28;20189;-67
2021/04/27 02:29:21;;;;;;;7.55;4.10;;;0.40;99.90;;;;;;2080161;28;20225;-67
2021/04/27 02:30:24;;;;;;;6.28;4.40;;;0.30;99.90;;;;;;2080943;28;20231;-67
2021/04/27 02:31:25;;;;;;;7.80;4.50;;;0.30;99.90;;;;;;2080586;28;20182;-67
2021/04/27 02:32:25;;;;;;;6.03;4.32;;;0.30;99.90;;;;;;2080373;28;20188;-67
2021/04/27 02:33:26;;;;;;;6.33;4.40;;;0.30;99.90;;;;;;2080223;28;20259;-67
2021/04/27 02:34:27;;;;;;;8.67;4.43;;;0.30;99.90;;;;;;2080271;28;20188;-67
2021/04/27 02:35:30;;;;;;;8.07;4.25;;;0.30;99.90;;;;;;2080165;28;20251;-67
2021/04/27 02:36:37;;;;;;;6.15;4.57;;;0.30;99.90;;;;;;2080995;28;20191;-67
2021/04/27 02:37:42;;;;;;;7.05;4.70;;;0.30;99.90;;;;;;2080754;28;20538;-67
2021/04/27 02:38:43;;;;;;;5.07;3.80;;;0.20;99.90;;;;;;2081240;28;20275;-67
2021/04/27 02:39:45;;;;;;;6.22;4.63;;;0.20;99.90;;;;;;2080856;28;20182;-67
2021/04/27 02:40:53;;;;;;;6.43;4.18;;;0.20;99.90;;;;;;2080663;28;20709;-66
2021/04/27 02:41:54;;;;;;;5.32;4.18;;;0.20;99.90;;;;;;2080905;28;20164;-67
2021/04/27 02:42:59;;;;;;;5.40;4.57;;;0.20;99.90;;;;;;2081000;28;20278;-67
2021/04/27 02:44:00;;;;;;;8.07;4.63;;;0.10;99.90;;;;;;2080854;28;20188;-67
2021/04/27 02:45:01;;;;;;;8.52;4.57;;;0.10;99.90;;;;;;2080861;28;20248;-67
2021/04/27 02:46:02;;;;;;;7.43;4.40;;;0.10;99.90;;;;;;2080749;28;20186;-67
2021/04/27 02:47:04;;;;;;;5.80;4.40;;;0.10;99.90;;;;;;2081012;28;20212;-67
2021/04/27 02:48:18;;;;;;;5.00;4.05;;;0.10;99.90;;;;;;2080747;28;20185;-66
2021/04/27 02:49:18;;;;;;;5.53;4.05;;;0.10;99.90;;;;;;2080721;28;20173;-67
2021/04/27 02:50:19;;;;;;;10.57;4.50;;;0.10;99.90;;;;;;2080750;28;20641;-66
2021/04/27 02:51:20;;;;;;;5.20;4.13;;;0.10;99.90;;;;;;2080239;28;20199;-67
2021/04/27 02:52:20;;;;;;;7.13;4.17;;;0.10;99.90;;;;;;2080050;28;20185;-66
2021/04/27 02:53:22;;;;;;;5.47;3.80;;;0.10;99.90;;;;;;2080114;28;20176;-66
2021/04/27 02:54:23;;;;;;;5.53;4.00;;;0.10;99.90;;;;;;2080674;28;20809;-66
2021/04/27 02:55:24;;;;;;;7.63;3.90;;;0.10;99.90;;;;;;2081174;28;20209;-67
2021/04/27 02:56:25;;;;;;;7.03;4.57;;;0.10;99.90;;;;;;2082110;28;20180;-66
2021/04/27 02:57:25;;;;;;;5.53;4.37;;;0.10;99.90;;;;;;2082292;28;20188;-67
2021/04/27 02:58:26;;;;;;;7.60;4.47;;;0.10;99.90;;;;;;2084675;28;20615;-67
2021/04/27 02:59:27;;;;;;;6.53;4.53;;;0.10;99.90;;;;;;2082360;28;20181;-66
2021/04/27 03:00:28;;;;;;;5.50;3.97;;;0.10;99.90;;;;;;2082101;28;20188;-67
2021/04/27 03:01:29;;;;;;;6.93;4.27;;;0.10;99.90;;;;;;2081943;28;20660;-67
2021/04/27 03:02:29;;;;;;;6.22;4.40;;;0.10;99.90;;;;;;2082096;28;20228;-67
2021/04/27 03:03:30;;;;;;;6.17;4.53;;;0.10;99.90;;;;;;2082273;28;20182;-67
2021/04/27 03:04:31;;;;;;;6.23;4.37;;;0.10;99.90;;;;;;2082243;28;20173;-67
2021/04/27 03:05:32;;;;;;;7.38;4.15;;;0.10;99.90;;;;;;2082238;28;20183;-67
2021/04/27 03:06:33;;;;;;;8.73;4.40;;;0.10;99.90;;;;;;2082222;28;20217;-67
2021/04/27 03:07:34;;;;;;;6.93;4.53;;;0.10;99.90;;;;;;2082208;28;20652;-67
2021/04/27 03:08:35;;;;;;;7.43;4.70;;;0.00;99.90;;;;;;2082155;28;20179;-66
2021/04/27 03:09:36;;;;;;;7.27;4.27;;;0.00;99.90;;;;;;2082158;28;20186;-67
2021/04/27 03:10:36;;;;;;;7.53;4.63;;;0.00;99.90;;;;;;2081985;28;20653;-67
2021/04/27 03:11:37;;;;;;;8.27;4.57;;;0.00;99.90;;;;;;2082003;28;20190;-67
2021/04/27 03:12:38;;;;;;;6.50;4.00;;;0.00;99.90;;;;;;2082010;28;20194;-66
2021/04/27 03:13:39;;;;;;;7.30;4.40;;;0.00;99.90;;;;;;2081601;28;20201;-67
2021/04/27 03:14:39;;;;;;;6.77;4.57;;;0.00;99.90;;;;;;2081515;28;20649;-67
2021/04/27 03:15:40;;;;;;;5.87;4.33;;;0.00;99.90;;;;;;2082123;28;20187;-67
2021/04/27 03:16:41;;;;;;;7.47;4.60;;;0.00;99.90;;;;;;2082056;28;20221;-66
2021/04/27 03:17:41;;;;;;;6.17;4.10;;;0.00;99.90;;;;;;2082029;28;20220;-66
2021/04/27 03:18:42;;;;;;;6.40;4.30;;;0.00;99.90;;;;;;2082122;28;20186;-66
2021/04/27 03:19:43;;;;;;;7.77;4.40;;;0.00;99.90;;;;;;2082190;28;20206;-66
2021/04/27 03:20:44;;;;;;;7.40;4.40;;;-0.10;99.90;;;;;;2082049;28;20243;-67
2021/04/27 03:21:45;;;;;;;7.00;4.45;;;-0.10;99.90;;;;;;2082004;28;20179;-67
2021/04/27 03:22:46;;;;;;;6.10;4.40;;;-0.10;99.90;;;;;;2081541;28;20556;-67
2021/04/27 03:23:46;;;;;;;7.63;4.40;;;-0.10;99.90;;;;;;2081611;28;20174;-67
2021/04/27 03:24:47;;;;;;;5.80;4.47;;;-0.20;99.90;;;;;;2082112;28;20181;-67
2021/04/27 03:25:49;;;;;;;5.67;4.33;;;-0.10;99.90;;;;;;2082248;28;20189;-67
2021/04/27 03:26:50;;;;;;;7.45;4.43;;;-0.20;99.90;;;;;;2082175;28;20803;-66
2021/04/27 03:27:50;;;;;;;5.60;4.30;;;-0.20;99.90;;;;;;2082359;28;20189;-66
2021/04/27 03:28:51;;;;;;;6.03;4.33;;;-0.20;99.90;;;;;;2081934;28;20638;-67
2021/04/27 03:29:52;;;;;;;6.73;4.37;;;-0.10;99.90;;;;;;2082142;28;20273;-67
2021/04/27 03:30:53;;;;;;;7.68;4.18;;;-0.20;99.90;;;;;;2082154;28;20665;-67
2021/04/27 03:31:54;;;;;;;5.73;4.30;;;-0.20;99.90;;;;;;2082198;28;20245;-67
2021/04/27 03:32:54;;;;;;;5.80;4.00;;;-0.20;99.90;;;;;;2082167;28;20670;-67
2021/04/27 03:33:55;;;;;;;10.07;4.30;;;-0.20;99.90;;;;;;2081980;28;20184;-67
2021/04/27 03:34:56;;;;;;;5.60;3.80;;;-0.20;99.90;;;;;;2082138;28;20597;-67
2021/04/27 03:35:56;;;;;;;10.10;4.73;;;-0.30;99.90;;;;;;2082068;28;20248;-66
2021/04/27 03:36:57;;;;;;;5.47;4.03;;;-0.30;99.90;;;;;;2082244;28;20244;-67
2021/04/27 03:37:58;;;;;;;5.03;4.00;;;-0.30;99.90;;;;;;2082021;28;20229;-67
2021/04/27 03:38:59;;;;;;;7.27;4.00;;;-0.40;99.90;;;;;;2082178;28;20187;-67
2021/04/27 03:40:00;;;;;;;6.10;3.97;;;-0.40;99.90;;;;;;2081775;28;20427;-67
2021/04/27 03:41:01;;;;;;;6.53;3.80;;;-0.40;99.90;;;;;;2081987;28;20205;-67
2021/04/27 03:42:02;;;;;;;5.10;4.07;;;-0.40;99.90;;;;;;2081660;28;20239;-67
2021/04/27 03:43:03;;;;;;;7.78;4.43;;;-0.40;99.90;;;;;;2081427;28;20227;-67
2021/04/27 03:44:04;;;;;;;7.53;4.20;;;-0.40;99.90;;;;;;2081289;28;20664;-67
2021/04/27 03:45:09;;;;;;;5.93;4.27;;;-0.40;99.90;;;;;;2081912;28;20173;-66
2021/04/27 03:46:10;;;;;;;6.88;3.80;;;-0.40;99.90;;;;;;2081969;28;20179;-67
2021/04/27 03:47:10;;;;;;;7.77;4.30;;;-0.40;99.90;;;;;;2081983;28;20186;-66
2021/04/27 03:48:17;;;;;;;6.43;4.40;;;-0.40;99.90;;;;;;2081918;28;20184;-66
2021/04/27 03:49:19;;;;;;;6.00;4.13;;;-0.40;99.90;;;;;;2082014;28;20205;-67
2021/04/27 03:50:20;;;;;;;6.15;4.20;;;-0.40;99.90;;;;;;2081617;28;20184;-67
2021/04/27 03:51:21;;;;;;;6.75;4.07;;;-0.40;99.90;;;;;;2081746;28;20235;-67
2021/04/27 03:52:21;;;;;;;6.67;4.60;;;-0.40;99.90;;;;;;2081837;28;20181;-67
2021/04/27 03:53:23;;;;;;;7.03;4.07;;;-0.40;99.90;;;;;;2081369;28;20174;-66
2021/04/27 03:54:24;;;;;;;7.30;4.65;;;-0.50;99.90;;;;;;2081192;28;20257;-67
2021/04/27 03:55:25;;;;;;;4.78;4.07;;;-0.50;99.90;;;;;;2081960;28;20273;-66
2021/04/27 03:56:26;;;;;;;7.43;4.70;;;-0.50;99.90;;;;;;2081664;28;20208;-67
2021/04/27 03:57:26;;;;;;;6.07;4.67;;;-0.50;99.90;;;;;;2081816;28;20177;-67
2021/04/27 03:58:27;;;;;;;5.60;4.20;;;-0.50;99.90;;;;;;2081774;28;20190;-67
2021/04/27 03:59:28;;;;;;;8.20;4.63;;;-0.60;99.90;;;;;;2081925;28;20180;-66
2021/04/27 04:00:30;;;;;;;7.05;4.38;;;-0.60;99.90;;;;;;2081795;28;20196;-66
2021/04/27 04:01:30;;;;;;;8.40;4.80;;;-0.60;99.90;;;;;;2080908;28;20177;-67
2021/04/27 04:02:31;;;;;;;6.50;4.30;;;-0.60;99.90;;;;;;2081253;28;20181;-66
2021/04/27 04:03:32;;;;;;;8.88;5.07;;;-0.60;99.90;;;;;;2082036;28;20177;-67
2021/04/27 04:04:33;;;;;;;7.10;4.20;;;-0.60;99.90;;;;;;2082153;28;20264;-68
2021/04/27 04:05:34;;;;;;;5.30;4.27;;;-0.60;99.90;;;;;;2082108;28;20572;-67
2021/04/27 04:06:35;;;;;;;6.83;4.70;;;-0.60;99.90;;;;;;2081205;28;20179;-67
2021/04/27 04:07:35;;;;;;;7.22;4.47;;;-0.60;99.90;;;;;;2081541;28;20285;-67
2021/04/27 04:08:36;;;;;;;7.37;4.30;;;-0.70;99.90;;;;;;2081854;28;20181;-66
2021/04/27 04:09:37;;;;;;;9.10;4.10;;;-0.60;99.90;;;;;;2082147;28;20601;-67
2021/04/27 04:10:37;;;;;;;7.10;4.77;;;-0.70;99.90;;;;;;2081919;28;20655;-66
2021/04/27 04:11:38;;;;;;;8.10;4.40;;;-0.70;99.90;;;;;;2081929;28;20185;-67
2021/04/27 04:12:40;;;;;;;6.93;4.37;;;-0.70;99.90;;;;;;2081902;28;20212;-67
2021/04/27 04:13:41;;;;;;;5.55;4.25;;;-0.70;99.90;;;;;;2082240;28;20190;-67
2021/04/27 04:14:42;;;;;;;5.60;4.13;;;-0.70;99.90;;;;;;2082059;28;20213;-67
2021/04/27 04:15:42;;;;;;;6.77;4.50;;;-0.70;99.90;;;;;;2082076;28;20179;-67
2021/04/27 04:16:43;;;;;;;6.40;4.23;;;-0.70;99.90;;;;;;2082044;28;20330;-67
2021/04/27 04:17:44;;;;;;;6.27;4.20;;;-0.70;99.90;;;;;;2081744;28;20202;-67
2021/04/27 04:18:44;;;;;;;6.85;4.20;;;-0.70;99.90;;;;;;2082144;28;20644;-67
2021/04/27 04:19:47;;;;;;;7.20;4.00;;;-0.70;99.90;;;;;;2081961;28;20186;-67
2021/04/27 04:20:49;;;;;;;6.72;4.00;;;-0.60;99.90;;;;;;2081848;28;20212;-66
2021/04/27 04:21:50;;;;;;;5.78;3.97;;;-0.60;99.90;;;;;;2081676;28;20185;-66
2021/04/27 04:22:52;;;;;;;5.97;4.40;;;-0.70;99.90;;;;;;2081893;28;20178;-67
2021/04/27 04:23:54;;;;;;;7.75;4.20;;;-0.70;99.90;;;;;;2081902;28;20524;-67
2021/04/27 04:24:54;;;;;;;7.38;4.60;;;-0.70;99.90;;;;;;2081285;28;20182;-67
2021/04/27 04:25:56;;;;;;;5.97;4.33;;;-0.70;99.90;;;;;;2082014;28;20554;-67
2021/04/27 04:26:57;;;;;;;7.13;4.68;;;-0.70;99.90;;;;;;2082023;28;20427;-66
2021/04/27 04:27:58;;;;;;;8.47;4.57;;;-0.70;99.90;;;;;;2081112;28;20597;-66
2021/04/27 04:28:58;;;;;;;6.70;4.33;;;-0.70;99.90;;;;;;2081392;28;20188;-67
2021/04/27 04:30:00;;;;;;;6.10;4.23;;;-0.70;99.90;;;;;;2081971;28;20190;-66
2021/04/27 04:31:00;;;;;;;7.47;4.40;;;-0.70;99.90;;;;;;2081923;28;20197;-67
2021/04/27 04:32:01;;;;;;;6.30;5.00;;;-0.70;99.90;;;;;;2081555;28;20227;-66
2021/04/27 04:33:03;;;;;;;8.93;5.37;;;-0.70;99.90;;;;;;2082011;28;20668;-66
2021/04/27 04:34:04;;;;;;;7.57;4.57;;;-0.70;99.90;;;;;;2081887;28;20185;-67
2021/04/27 04:35:06;;;;;;;6.13;4.27;;;-0.80;99.90;;;;;;2081964;28;20252;-67
2021/04/27 04:36:07;;;;;;;5.72;4.30;;;-0.80;99.90;;;;;;2081170;28;20247;-67
2021/04/27 04:37:08;;;;;;;8.50;4.68;;;-0.70;99.90;;;;;;2081370;28;20239;-68
2021/04/27 04:38:10;;;;;;;9.07;6.90;;;-0.80;99.90;;;;;;2081674;28;20707;-66
2021/04/27 04:39:11;;;;;;;9.98;7.78;;;-0.80;99.90;;;;;;2081695;28;20211;-67
2021/04/27 04:40:14;;;;;;;12.10;10.20;;;-0.70;99.90;;;;;;2081707;28;20185;-66
2021/04/27 04:41:14;;;;;;;13.70;11.55;;;-0.70;99.90;;;;;;2081415;28;20204;-67
2021/04/27 04:42:15;;;;;;;11.97;10.27;;;-0.70;99.90;;;;;;2081563;28;20182;-66
2021/04/27 04:43:17;;;;;;;12.77;9.43;;;-0.70;99.90;;;;;;2081797;28;20711;-66
2021/04/27 04:44:18;;;;;;;11.60;10.40;;;-0.60;99.90;;;;;;2081759;28;20236;-67
2021/04/27 04:45:19;;;;;;;10.60;8.80;;;-0.60;99.90;;;;;;2081815;28;20190;-67
2021/04/27 04:46:19;;;;;;;10.65;7.80;;;-0.60;99.90;;;;;;2081739;28;20196;-66
2021/04/27 04:47:20;;;;;;;9.77;7.00;;;-0.60;99.90;;;;;;2081847;28;20296;-66
2021/04/27 04:48:21;;;;;;;9.07;6.90;;;-0.60;99.90;;;;;;2081689;28;20204;-66
2021/04/27 04:49:24;;;;;;;10.17;7.23;;;-0.50;99.90;;;;;;2081767;28;20189;-66
2021/04/27 04:50:25;;;;;;;6.18;4.85;;;-0.50;99.90;;;;;;2081551;28;20170;-66
2021/04/27 04:51:26;;;;;;;7.87;6.33;;;-0.50;99.90;;;;;;2081581;28;20267;-67
2021/04/27 04:52:27;;;;;;;10.30;6.05;;;-0.50;99.90;;;;;;2081682;28;20177;-67
2021/04/27 04:53:28;;;;;;;8.85;6.32;;;-0.50;99.90;;;;;;2084167;28;20235;-66
2021/04/27 04:54:29;;;;;;;7.27;4.93;;;-0.50;99.90;;;;;;2081868;28;20243;-67
2021/04/27 04:55:30;;;;;;;7.70;6.20;;;-0.40;99.90;;;;;;2081511;28;20175;-66
2021/04/27 04:56:31;;;;;;;6.72;5.68;;;-0.50;99.90;;;;;;2081596;28;20558;-67
2021/04/27 04:57:33;;;;;;;7.73;6.47;;;-0.50;99.90;;;;;;2081560;28;20181;-67
2021/04/27 04:58:33;;;;;;;8.57;6.07;;;-0.40;99.90;;;;;;2081481;28;20234;-67
2021/04/27 04:59:34;;;;;;;8.97;6.23;;;-0.40;99.90;;;;;;2081499;28;20186;-66
2021/04/27 05:00:35;;;;;;;7.65;6.45;;;-0.40;99.90;;;;;;2080508;28;20554;-66
2021/04/27 05:01:36;;;;;;;11.33;6.70;;;-0.40;99.90;;;;;;2080617;28;20182;-67
2021/04/27 05:02:37;;;;;;;7.60;5.53;;;-0.40;99.90;;;;;;2081457;28;20652;-66
2021/04/27 05:03:40;;;;;;;6.95;4.90;;;-0.40;99.90;;;;;;2081398;28;20185;-66
2021/04/27 05:04:41;;;;;;;7.38;5.78;;;-0.30;99.90;;;;;;2081343;28;20656;-67
2021/04/27 05:05:42;;;;;;;6.97;4.73;;;-0.40;99.90;;;;;;2081298;28;20187;-66
2021/04/27 05:06:44;;;;;;;6.70;4.40;;;-0.30;99.90;;;;;;2080646;28;20186;-66
2021/04/27 05:07:57;;;;;;;6.60;4.40;;;-0.30;99.90;;;;;;2080892;28;20272;-66
2021/04/27 05:08:57;;;;;;;5.30;4.13;;;-0.30;99.90;;;;;;2081414;28;20204;-66
2021/04/27 05:09:58;;;;;;;6.03;4.57;;;-0.20;99.90;;;;;;2081397;28;20660;-66
2021/04/27 05:10:59;;;;;;;7.33;4.53;;;-0.20;99.90;;;;;;2081245;28;20236;-66
2021/04/27 05:12:00;;;;;;;6.13;4.60;;;-0.20;99.90;;;;;;2081065;28;20193;-66
2021/04/27 05:13:01;;;;;;;5.40;4.40;;;-0.20;99.90;;;;;;2081282;28;20640;-66
2021/04/27 05:14:02;;;;;;;5.27;4.13;;;-0.20;99.90;;;;;;2081202;28;20185;-67
2021/04/27 05:15:04;;;;;;;7.07;4.68;;;-0.20;99.90;;;;;;2081246;28;20204;-66
2021/04/27 05:16:07;;;;;;;10.20;4.63;;;-0.20;99.90;;;;;;2080613;28;20762;-66
2021/04/27 05:17:11;;;;;;;7.32;4.85;;;-0.20;99.90;;;;;;2080497;28;20180;-66
2021/04/27 05:18:13;;;;;;;7.60;4.72;;;-0.10;99.90;;;;;;2080088;28;20283;-66
2021/04/27 05:19:14;;;;;;;5.25;4.38;;;-0.10;99.90;;;;;;2080609;28;20265;-66
2021/04/27 05:20:16;;;;;;;6.27;4.13;;;0.00;99.90;;;;;;2081131;28;20649;-67
2021/04/27 05:21:17;;;;;;;5.90;4.20;;;0.00;99.90;;;;;;2080403;28;20192;-67
2021/04/27 05:22:18;;;;;;;7.17;4.77;;;0.10;99.90;;;;;;2080433;28;20770;-66
2021/04/27 05:23:19;;;;;;;6.88;4.20;;;0.10;99.90;;;;;;2080686;28;20199;-67
2021/04/27 05:24:21;;;;;;;7.07;4.50;;;0.10;99.90;;;;;;2080397;28;20191;-67
2021/04/27 05:25:22;;;;;;;5.70;4.22;;;0.20;99.90;;;;;;2080542;28;20737;-67
2021/04/27 05:26:23;;;;;;;6.20;4.30;;;0.20;99.90;;;;;;2081171;28;20179;-66